createdAt,value
2023-03-02T00:00:23.480Z,1025.96
2023-03-02T00:01:26.674Z,1026.00
2023-03-02T00:02:30.013Z,1026.00
2023-03-02T00:04:05.935Z,1026.00
2023-03-02T00:05:09.511Z,1025.97
2023-03-02T00:06:13.010Z,1026.00
2023-03-02T00:07:48.963Z,1025.99
2023-03-02T00:08:52.286Z,1026.00
2023-03-02T00:09:55.606Z,1025.98
2023-03-02T00:11:31.211Z,1025.94
2023-03-02T00:12:34.672Z,1025.98
2023-03-02T00:13:38.155Z,1025.92
2023-03-02T00:15:13.527Z,1025.96
2023-03-02T00:16:16.904Z,1025.85
2023-03-02T00:17:21.062Z,1025.84
2023-03-02T00:18:56.232Z,1025.79
2023-03-02T00:19:59.450Z,1025.81
2023-03-02T00:21:02.689Z,1025.84
2023-03-02T00:22:37.809Z,1025.86
2023-03-02T00:23:41.426Z,1025.85
2023-03-02T00:24:44.612Z,1025.86
2023-03-02T00:26:20.006Z,1025.88
2023-03-02T00:27:23.763Z,1025.85
2023-03-02T00:28:27.246Z,1025.84
2023-03-02T00:30:02.228Z,1025.81
2023-03-02T00:31:05.577Z,1025.84
2023-03-02T00:32:09.675Z,1025.81
2023-03-02T00:33:44.965Z,1025.80
2023-03-02T00:34:48.157Z,1025.79
2023-03-02T00:35:51.765Z,1025.76
2023-03-02T00:37:27.879Z,1025.76
2023-03-02T00:38:31.072Z,1025.77
2023-03-02T00:39:34.524Z,1025.75
2023-03-02T00:41:09.888Z,1025.76
2023-03-02T00:42:13.127Z,1025.75
2023-03-02T00:43:16.207Z,1025.75
2023-03-02T00:44:51.760Z,1025.70
2023-03-02T00:45:55.009Z,1025.74
2023-03-02T00:46:58.884Z,1025.69
2023-03-02T00:48:34.651Z,1025.65
2023-03-02T00:49:37.977Z,1025.65
2023-03-02T00:50:41.336Z,1025.63
2023-03-02T00:52:16.982Z,1025.66
2023-03-02T00:53:20.283Z,1025.64
2023-03-02T00:54:23.532Z,1025.58
2023-03-02T00:55:58.593Z,1025.59
2023-03-02T00:57:02.103Z,1025.59
2023-03-02T00:58:05.651Z,1025.61
2023-03-02T00:59:41.258Z,1025.59
2023-03-02T01:00:23.838Z,1025.57
2023-03-02T01:01:29.908Z,1025.57
2023-03-02T01:02:33.815Z,1025.56
2023-03-02T01:04:10.002Z,1025.52
2023-03-02T01:05:13.222Z,1025.53
2023-03-02T01:06:16.418Z,1025.49
2023-03-02T01:07:52.448Z,1025.51
2023-03-02T01:08:55.973Z,1025.48
2023-03-02T01:09:59.194Z,1025.49
2023-03-02T01:11:34.648Z,1025.44
2023-03-02T01:12:37.672Z,1025.47
2023-03-02T01:13:40.849Z,1025.44
2023-03-02T01:15:16.340Z,1025.41
2023-03-02T01:16:19.528Z,1025.40
2023-03-02T01:17:23.766Z,1025.45
2023-03-02T01:18:59.533Z,1025.36
2023-03-02T01:20:02.840Z,1025.39
2023-03-02T01:21:05.930Z,1025.40
2023-03-02T01:22:41.238Z,1025.35
2023-03-02T01:23:44.678Z,1025.39
2023-03-02T01:24:47.886Z,1025.38
2023-03-02T01:26:22.996Z,1025.37
2023-03-02T01:27:26.212Z,1025.39
2023-03-02T01:28:29.255Z,1025.40
2023-03-02T01:30:04.540Z,1025.36
2023-03-02T01:31:08.045Z,1025.38
2023-03-02T01:32:12.037Z,1025.36
2023-03-02T01:33:47.640Z,1025.36
2023-03-02T01:34:50.916Z,1025.34
2023-03-02T01:35:54.208Z,1025.33
2023-03-02T01:37:30.120Z,1025.33
2023-03-02T01:38:33.513Z,1025.31
2023-03-02T01:39:36.948Z,1025.29
2023-03-02T01:41:12.233Z,1025.34
2023-03-02T01:42:15.415Z,1025.36
2023-03-02T01:43:18.451Z,1025.32
2023-03-02T01:44:54.178Z,1025.35
2023-03-02T01:45:58.111Z,1025.32
2023-03-02T01:47:01.763Z,1025.31
2023-03-02T01:48:36.948Z,1025.35
2023-03-02T01:49:40.252Z,1025.38
2023-03-02T01:50:43.534Z,1025.33
2023-03-02T01:52:18.752Z,1025.32
2023-03-02T01:53:22.228Z,1025.36
2023-03-02T01:54:25.263Z,1025.38
2023-03-02T01:56:00.352Z,1025.39
2023-03-02T01:57:03.852Z,1025.42
2023-03-02T01:58:07.240Z,1025.42
2023-03-02T01:59:42.702Z,1025.42
2023-03-02T02:00:23.711Z,1025.42
2023-03-02T02:01:27.651Z,1025.46
2023-03-02T02:02:31.236Z,1025.44
2023-03-02T02:04:06.935Z,1025.42
2023-03-02T02:05:10.442Z,1025.41
2023-03-02T02:06:13.585Z,1025.44
2023-03-02T02:07:49.316Z,1025.44
2023-03-02T02:08:52.284Z,1025.40
2023-03-02T02:09:55.804Z,1025.41
2023-03-02T02:11:30.937Z,1025.36
2023-03-02T02:12:34.178Z,1025.39
2023-03-02T02:13:37.568Z,1025.39
2023-03-02T02:15:13.264Z,1025.39
2023-03-02T02:16:16.709Z,1025.33
2023-03-02T02:17:20.610Z,1025.36
2023-03-02T02:18:55.852Z,1025.32
2023-03-02T02:19:59.012Z,1025.31
2023-03-02T02:21:02.141Z,1025.30
2023-03-02T02:22:37.827Z,1025.25
2023-03-02T02:23:41.136Z,1025.21
2023-03-02T02:24:44.409Z,1025.23
2023-03-02T02:26:19.772Z,1025.23
2023-03-02T02:27:23.621Z,1025.30
2023-03-02T02:28:26.902Z,1025.28
2023-03-02T02:30:02.183Z,1025.27
2023-03-02T02:31:05.722Z,1025.29
2023-03-02T02:32:09.806Z,1025.27
2023-03-02T02:33:45.771Z,1025.28
2023-03-02T02:34:49.279Z,1025.29
2023-03-02T02:35:52.836Z,1025.29
2023-03-02T02:37:28.754Z,1025.26
2023-03-02T02:38:31.900Z,1025.26
2023-03-02T02:39:35.201Z,1025.28
2023-03-02T02:41:10.914Z,1025.27
2023-03-02T02:42:14.180Z,1025.26
2023-03-02T02:43:17.463Z,1025.31
2023-03-02T02:44:52.711Z,1025.27
2023-03-02T02:45:56.046Z,1025.30
2023-03-02T02:46:59.470Z,1025.28
2023-03-02T02:48:34.893Z,1025.35
2023-03-02T02:49:38.178Z,1025.37
2023-03-02T02:50:41.484Z,1025.35
2023-03-02T02:52:16.498Z,1025.33
2023-03-02T02:53:19.654Z,1025.29
2023-03-02T02:54:22.957Z,1025.28
2023-03-02T02:55:58.230Z,1025.29
2023-03-02T02:57:01.469Z,1025.30
2023-03-02T02:58:04.470Z,1025.27
2023-03-02T02:59:39.577Z,1025.21
2023-03-02T03:00:23.379Z,1025.29
2023-03-02T03:01:26.944Z,1025.27
2023-03-02T03:02:30.586Z,1025.25
2023-03-02T03:04:06.017Z,1025.22
2023-03-02T03:05:09.730Z,1025.23
2023-03-02T03:06:12.986Z,1025.23
2023-03-02T03:07:49.091Z,1025.21
2023-03-02T03:08:52.471Z,1025.24
2023-03-02T03:09:56.034Z,1025.21
2023-03-02T03:11:31.524Z,1025.25
2023-03-02T03:12:34.516Z,1025.26
2023-03-02T03:13:37.762Z,1025.28
2023-03-02T03:15:13.467Z,1025.22
2023-03-02T03:16:16.713Z,1025.27
2023-03-02T03:17:20.904Z,1025.24
2023-03-02T03:18:56.094Z,1025.25
2023-03-02T03:19:59.334Z,1025.27
2023-03-02T03:21:02.396Z,1025.26
2023-03-02T03:22:37.574Z,1025.25
2023-03-02T03:23:40.808Z,1025.25
2023-03-02T03:24:44.258Z,1025.25
2023-03-02T03:26:19.627Z,1025.28
2023-03-02T03:27:23.425Z,1025.24
2023-03-02T03:28:26.739Z,1025.26
2023-03-02T03:30:02.047Z,1025.27
2023-03-02T03:31:05.467Z,1025.26
2023-03-02T03:32:09.663Z,1025.26
2023-03-02T03:33:45.463Z,1025.28
2023-03-02T03:34:48.916Z,1025.29
2023-03-02T03:35:52.535Z,1025.28
2023-03-02T03:37:29.028Z,1025.29
2023-03-02T03:38:32.212Z,1025.30
2023-03-02T03:39:35.803Z,1025.34
2023-03-02T03:41:11.233Z,1025.36
2023-03-02T03:42:14.549Z,1025.28
2023-03-02T03:43:17.896Z,1025.33
2023-03-02T03:44:53.556Z,1025.27
2023-03-02T03:45:57.046Z,1025.23
2023-03-02T03:47:00.577Z,1025.26
2023-03-02T03:48:35.859Z,1025.26
2023-03-02T03:49:39.205Z,1025.28
2023-03-02T03:50:42.234Z,1025.19
2023-03-02T03:52:17.570Z,1025.20
2023-03-02T03:53:20.570Z,1025.20
2023-03-02T03:54:23.593Z,1025.20
2023-03-02T03:55:58.953Z,1025.25
2023-03-02T03:57:02.426Z,1025.21
2023-03-02T03:58:05.945Z,1025.25
2023-03-02T03:59:41.401Z,1025.23
2023-03-02T04:00:23.836Z,1025.23
2023-03-02T04:01:27.595Z,1025.24
2023-03-02T04:02:31.508Z,1025.24
2023-03-02T04:04:06.964Z,1025.22
2023-03-02T04:05:09.938Z,1025.23
2023-03-02T04:06:12.737Z,1025.22
2023-03-02T04:07:48.369Z,1025.25
2023-03-02T04:08:51.761Z,1025.23
2023-03-02T04:09:54.958Z,1025.19
2023-03-02T04:11:30.442Z,1025.27
2023-03-02T04:12:33.637Z,1025.23
2023-03-02T04:13:36.891Z,1025.23
2023-03-02T04:15:12.230Z,1025.23
2023-03-02T04:16:15.674Z,1025.19
2023-03-02T04:17:19.584Z,1025.19
2023-03-02T04:18:54.766Z,1025.19
2023-03-02T04:19:58.018Z,1025.20
2023-03-02T04:21:01.079Z,1025.20
2023-03-02T04:22:36.576Z,1025.18
2023-03-02T04:23:39.811Z,1025.20
2023-03-02T04:24:43.048Z,1025.24
2023-03-02T04:26:18.611Z,1025.20
2023-03-02T04:27:22.256Z,1025.24
2023-03-02T04:28:28.424Z,1025.21
2023-03-02T04:30:03.546Z,1025.23
2023-03-02T04:31:07.064Z,1025.23
2023-03-02T04:32:10.655Z,1025.21
2023-03-02T04:33:46.176Z,1025.21
2023-03-02T04:34:49.450Z,1025.23
2023-03-02T04:35:52.697Z,1025.27
2023-03-02T04:37:30.957Z,1025.26
2023-03-02T04:38:34.077Z,1025.22
2023-03-02T04:39:37.234Z,1025.21
2023-03-02T04:41:12.403Z,1025.23
2023-03-02T04:42:15.667Z,1025.19
2023-03-02T04:43:18.925Z,1025.22
2023-03-02T04:44:54.671Z,1025.20
2023-03-02T04:45:57.769Z,1025.20
2023-03-02T04:47:01.340Z,1025.19
2023-03-02T04:48:37.266Z,1025.21
2023-03-02T04:49:40.755Z,1025.20
2023-03-02T04:50:43.862Z,1025.22
2023-03-02T04:52:18.987Z,1025.19
2023-03-02T04:53:22.220Z,1025.19
2023-03-02T04:54:25.225Z,1025.26
2023-03-02T04:56:00.482Z,1025.24
2023-03-02T04:57:03.913Z,1025.23
2023-03-02T04:58:07.088Z,1025.19
2023-03-02T04:59:42.421Z,1025.23
2023-03-02T05:00:23.532Z,1025.21
2023-03-02T05:01:26.694Z,1025.19
2023-03-02T05:02:30.113Z,1025.19
2023-03-02T05:04:08.608Z,1025.18
2023-03-02T05:05:53.012Z,1025.20
2023-03-02T05:06:56.736Z,1025.22
2023-03-02T05:08:00.433Z,1025.23
2023-03-02T05:09:36.295Z,1025.22
2023-03-02T05:10:39.892Z,1025.21
2023-03-02T05:11:43.260Z,1025.24
2023-03-02T05:13:19.254Z,1025.27
2023-03-02T05:14:22.719Z,1025.26
2023-03-02T05:15:26.087Z,1025.29
2023-03-02T05:17:02.350Z,1025.28
2023-03-02T05:18:05.544Z,1025.27
2023-03-02T05:19:08.890Z,1025.25
2023-03-02T05:20:44.568Z,1025.30
2023-03-02T05:21:47.966Z,1025.32
2023-03-02T05:22:51.476Z,1025.30
2023-03-02T05:24:27.026Z,1025.30
2023-03-02T05:25:30.460Z,1025.34
2023-03-02T05:26:34.971Z,1025.34
2023-03-02T05:28:10.781Z,1025.31
2023-03-02T05:29:14.304Z,1025.30
2023-03-02T05:30:17.437Z,1025.30
2023-03-02T05:31:53.699Z,1025.31
2023-03-02T05:32:57.532Z,1025.27
2023-03-02T05:34:00.940Z,1025.28
2023-03-02T05:35:36.294Z,1025.28
2023-03-02T05:36:40.454Z,1025.25
2023-03-02T05:37:45.097Z,1025.29
2023-03-02T05:39:20.406Z,1025.24
2023-03-02T05:40:23.947Z,1025.26
2023-03-02T05:41:27.275Z,1025.27
2023-03-02T05:43:02.788Z,1025.23
2023-03-02T05:44:06.320Z,1025.26
2023-03-02T05:45:10.026Z,1025.27
2023-03-02T05:46:46.360Z,1025.26
2023-03-02T05:47:50.028Z,1025.24
2023-03-02T05:48:53.387Z,1025.24
2023-03-02T05:50:28.941Z,1025.21
2023-03-02T05:51:32.436Z,1025.24
2023-03-02T05:52:36.179Z,1025.22
2023-03-02T05:54:11.553Z,1025.19
2023-03-02T05:55:14.785Z,1025.18
2023-03-02T05:56:18.335Z,1025.20
2023-03-02T05:57:54.490Z,1025.19
2023-03-02T05:58:57.706Z,1025.22
2023-03-02T06:00:01.138Z,1025.18
2023-03-02T06:00:24.405Z,1025.18
2023-03-02T06:01:27.685Z,1025.21
2023-03-02T06:02:32.120Z,1025.19
2023-03-02T06:04:08.124Z,1025.19
2023-03-02T06:05:11.639Z,1025.23
2023-03-02T06:06:15.170Z,1025.32
2023-03-02T06:07:52.732Z,1025.28
2023-03-02T06:08:55.971Z,1025.28
2023-03-02T06:09:59.414Z,1025.26
2023-03-02T06:11:35.023Z,1025.23
2023-03-02T06:12:38.318Z,1025.23
2023-03-02T06:13:41.710Z,1025.17
2023-03-02T06:15:17.143Z,1025.22
2023-03-02T06:16:20.705Z,1025.23
2023-03-02T06:17:25.072Z,1025.25
2023-03-02T06:19:00.374Z,1025.26
2023-03-02T06:20:03.691Z,1025.21
2023-03-02T06:21:07.185Z,1025.25
2023-03-02T06:22:42.776Z,1025.28
2023-03-02T06:23:46.355Z,1025.25
2023-03-02T06:24:49.643Z,1025.26
2023-03-02T06:26:25.217Z,1025.24
2023-03-02T06:27:29.232Z,1025.24
2023-03-02T06:28:34.252Z,1025.28
2023-03-02T06:30:23.176Z,1025.31
2023-03-02T06:31:26.929Z,1025.34
2023-03-02T06:32:31.147Z,1025.35
2023-03-02T06:34:06.954Z,1025.35
2023-03-02T06:35:10.595Z,1025.35
2023-03-02T06:36:14.940Z,1025.35
2023-03-02T06:37:53.640Z,1025.40
2023-03-02T06:38:57.147Z,1025.42
2023-03-02T06:40:00.692Z,1025.41
2023-03-02T06:41:37.106Z,1025.49
2023-03-02T06:42:40.682Z,1025.51
2023-03-02T06:43:43.971Z,1025.53
2023-03-02T06:45:19.298Z,1025.54
2023-03-02T06:46:23.059Z,1025.58
2023-03-02T06:47:26.936Z,1025.57
2023-03-02T06:49:02.369Z,1025.58
2023-03-02T06:50:06.274Z,1025.58
2023-03-02T06:51:09.680Z,1025.60
2023-03-02T06:52:45.354Z,1025.60
2023-03-02T06:53:49.009Z,1025.64
2023-03-02T06:54:52.653Z,1025.58
2023-03-02T06:56:28.189Z,1025.56
2023-03-02T06:57:33.084Z,1025.55
2023-03-02T06:58:36.560Z,1025.55
2023-03-02T07:00:25.744Z,1025.58
2023-03-02T07:01:29.652Z,1025.57
2023-03-02T07:02:33.507Z,1025.58
2023-03-02T07:04:09.261Z,1025.65
2023-03-02T07:05:12.852Z,1025.59
2023-03-02T07:06:16.271Z,1025.64
2023-03-02T07:07:51.594Z,1025.60
2023-03-02T07:08:54.890Z,1025.61
2023-03-02T07:09:58.034Z,1025.60
2023-03-02T07:11:33.492Z,1025.65
2023-03-02T07:12:37.019Z,1025.68
2023-03-02T07:13:40.107Z,1025.65
2023-03-02T07:15:15.606Z,1025.63
2023-03-02T07:16:19.396Z,1025.60
2023-03-02T07:17:23.216Z,1025.60
2023-03-02T07:18:58.667Z,1025.58
2023-03-02T07:20:02.336Z,1025.57
2023-03-02T07:21:05.612Z,1025.57
2023-03-02T07:22:41.315Z,1025.53
2023-03-02T07:23:44.713Z,1025.50
2023-03-02T07:24:50.638Z,1025.59
2023-03-02T07:26:26.324Z,1025.58
2023-03-02T07:27:29.829Z,1025.59
2023-03-02T07:28:33.339Z,1025.56
2023-03-02T07:30:08.865Z,1025.57
2023-03-02T07:31:12.665Z,1025.55
2023-03-02T07:32:18.449Z,1025.57
2023-03-02T07:33:53.991Z,1025.59
2023-03-02T07:34:57.664Z,1025.57
2023-03-02T07:36:01.413Z,1025.59
2023-03-02T07:37:36.915Z,1025.58
2023-03-02T07:38:40.374Z,1025.53
2023-03-02T07:39:43.913Z,1025.53
2023-03-02T07:41:19.848Z,1025.55
2023-03-02T07:42:23.718Z,1025.52
2023-03-02T07:43:27.237Z,1025.51
2023-03-02T07:45:02.944Z,1025.48
2023-03-02T07:46:06.184Z,1025.53
2023-03-02T07:47:09.923Z,1025.46
2023-03-02T07:48:45.414Z,1025.49
2023-03-02T07:49:48.924Z,1025.44
2023-03-02T07:50:52.080Z,1025.47
2023-03-02T07:52:27.774Z,1025.47
2023-03-02T07:53:31.201Z,1025.48
2023-03-02T07:54:34.699Z,1025.49
2023-03-02T07:56:10.201Z,1025.45
2023-03-02T07:57:13.550Z,1025.43
2023-03-02T07:58:16.926Z,1025.43
2023-03-02T07:59:53.757Z,1025.43
2023-03-02T08:00:23.489Z,1025.44
2023-03-02T08:01:29.474Z,1025.43
2023-03-02T08:02:33.418Z,1025.44
2023-03-02T08:04:09.495Z,1025.44
2023-03-02T08:05:12.877Z,1025.45
2023-03-02T08:06:16.235Z,1025.46
2023-03-02T08:07:52.118Z,1025.45
2023-03-02T08:08:55.454Z,1025.47
2023-03-02T08:09:58.709Z,1025.48
2023-03-02T08:11:35.011Z,1025.52
2023-03-02T08:12:38.732Z,1025.40
2023-03-02T08:13:42.236Z,1025.41
2023-03-02T08:15:17.611Z,1025.47
2023-03-02T08:16:21.292Z,1025.53
2023-03-02T08:17:25.158Z,1025.54
2023-03-02T08:19:03.007Z,1025.56
2023-03-02T08:20:06.400Z,1025.58
2023-03-02T08:21:09.847Z,1025.59
2023-03-02T08:22:45.341Z,1025.57
2023-03-02T08:23:48.844Z,1025.63
2023-03-02T08:24:52.467Z,1025.61
2023-03-02T08:26:29.134Z,1025.63
2023-03-02T08:27:32.350Z,1025.58
2023-03-02T08:28:36.210Z,1025.60
2023-03-02T08:30:11.681Z,1025.64
2023-03-02T08:31:15.173Z,1025.61
2023-03-02T08:32:19.842Z,1025.62
2023-03-02T08:33:59.132Z,1025.62
2023-03-02T08:35:02.586Z,1025.63
2023-03-02T08:36:06.264Z,1025.59
2023-03-02T08:37:41.809Z,1025.59
2023-03-02T08:38:45.151Z,1025.60
2023-03-02T08:39:48.644Z,1025.63
2023-03-02T08:41:24.228Z,1025.60
2023-03-02T08:42:28.112Z,1025.60
2023-03-02T08:43:31.633Z,1025.61
2023-03-02T08:45:07.108Z,1025.56
2023-03-02T08:46:10.696Z,1025.59
2023-03-02T08:47:13.896Z,1025.55
2023-03-02T08:48:49.596Z,1025.59
2023-03-02T08:49:54.127Z,1025.59
2023-03-02T08:50:57.279Z,1025.56
2023-03-02T08:52:33.228Z,1025.54
2023-03-02T08:53:36.559Z,1025.52
2023-03-02T08:54:39.865Z,1025.58
2023-03-02T08:56:15.473Z,1025.55
2023-03-02T08:57:21.226Z,1025.57
2023-03-02T08:58:24.926Z,1025.54
2023-03-02T09:00:00.236Z,1025.57
2023-03-02T09:00:23.542Z,1025.57
2023-03-02T09:01:29.934Z,1025.54
2023-03-02T09:02:34.096Z,1025.53
2023-03-02T09:04:09.574Z,1025.46
2023-03-02T09:05:13.368Z,1025.54
2023-03-02T09:06:16.690Z,1025.57
2023-03-02T09:07:52.655Z,1025.55
2023-03-02T09:08:55.965Z,1025.54
2023-03-02T09:09:59.493Z,1025.59
2023-03-02T09:11:35.438Z,1025.58
2023-03-02T09:12:39.045Z,1025.55
2023-03-02T09:13:42.516Z,1025.47
2023-03-02T09:15:18.152Z,1025.51
2023-03-02T09:16:21.579Z,1025.51
2023-03-02T09:17:25.183Z,1025.54
2023-03-02T09:19:00.553Z,1025.54
2023-03-02T09:20:04.006Z,1025.53
2023-03-02T09:21:07.210Z,1025.53
2023-03-02T09:22:42.426Z,1025.51
2023-03-02T09:23:45.781Z,1025.48
2023-03-02T09:24:48.919Z,1025.55
2023-03-02T09:26:24.482Z,1025.46
2023-03-02T09:27:28.088Z,1025.52
2023-03-02T09:28:31.672Z,1025.50
2023-03-02T09:30:06.921Z,1025.50
2023-03-02T09:31:10.269Z,1025.55
2023-03-02T09:32:17.203Z,1025.49
2023-03-02T09:33:54.038Z,1025.51
2023-03-02T09:34:57.356Z,1025.50
2023-03-02T09:36:00.674Z,1025.49
2023-03-02T09:37:36.357Z,1025.53
2023-03-02T09:38:42.450Z,1025.54
2023-03-02T09:39:46.118Z,1025.52
2023-03-02T09:41:21.811Z,1025.49
2023-03-02T09:42:38.110Z,1025.48
2023-03-02T09:43:46.851Z,1025.48
2023-03-02T09:45:24.435Z,1025.45
2023-03-02T09:46:28.223Z,1025.49
2023-03-02T09:47:46.444Z,1025.50
2023-03-02T09:49:22.200Z,1025.45
2023-03-02T09:50:25.980Z,1025.47
2023-03-02T09:51:29.356Z,1025.50
2023-03-02T09:53:04.833Z,1025.51
2023-03-02T09:54:08.529Z,1025.47
2023-03-02T09:55:13.120Z,1025.49
2023-03-02T09:56:48.890Z,1025.49
2023-03-02T09:57:52.369Z,1025.49
2023-03-02T09:58:55.841Z,1025.50
2023-03-02T10:00:31.615Z,1025.51
2023-03-02T10:01:35.110Z,1025.53
2023-03-02T10:02:38.571Z,1025.49
2023-03-02T10:04:22.156Z,1025.45
2023-03-02T10:05:26.073Z,1025.48
2023-03-02T10:06:29.563Z,1025.51
2023-03-02T10:08:05.434Z,1025.44
2023-03-02T10:09:09.112Z,1025.43
2023-03-02T10:10:12.422Z,1025.45
2023-03-02T10:11:47.694Z,1025.44
2023-03-02T10:12:51.002Z,1025.43
2023-03-02T10:13:54.469Z,1025.46
2023-03-02T10:15:29.776Z,1025.43
2023-03-02T10:16:34.124Z,1025.39
2023-03-02T10:17:37.748Z,1025.41
2023-03-02T10:19:16.598Z,1025.42
2023-03-02T10:20:20.071Z,1025.46
2023-03-02T10:21:26.400Z,1025.43
2023-03-02T10:23:02.008Z,1025.43
2023-03-02T10:24:05.265Z,1025.42
2023-03-02T10:25:08.636Z,1025.39
2023-03-02T10:26:44.707Z,1025.43
2023-03-02T10:27:48.386Z,1025.37
2023-03-02T10:28:51.778Z,1025.40
2023-03-02T10:30:27.153Z,1025.37
2023-03-02T10:31:31.006Z,1025.38
2023-03-02T10:32:34.766Z,1025.36
2023-03-02T10:34:10.241Z,1025.38
2023-03-02T10:35:13.734Z,1025.33
2023-03-02T10:36:19.143Z,1025.35
2023-03-02T10:37:56.654Z,1025.36
2023-03-02T10:38:59.956Z,1025.37
2023-03-02T10:40:03.457Z,1025.39
2023-03-02T10:41:39.976Z,1025.39
2023-03-02T10:42:43.982Z,1025.34
2023-03-02T10:43:47.035Z,1025.32
2023-03-02T10:45:22.227Z,1025.31
2023-03-02T10:46:25.758Z,1025.33
2023-03-02T10:47:31.708Z,1025.33
2023-03-02T10:49:06.881Z,1025.34
2023-03-02T10:50:13.013Z,1025.35
2023-03-02T10:51:16.277Z,1025.33
2023-03-02T10:53:06.873Z,1025.33
2023-03-02T10:54:09.918Z,1025.33
2023-03-02T10:55:12.865Z,1025.29
2023-03-02T10:56:48.015Z,1025.36
2023-03-02T10:57:51.092Z,1025.36
2023-03-02T10:58:55.654Z,1025.37
2023-03-02T11:00:23.650Z,1025.32
2023-03-02T11:01:27.071Z,1025.38
2023-03-02T11:02:30.544Z,1025.36
2023-03-02T11:04:05.760Z,1025.33
2023-03-02T11:05:09.635Z,1025.29
2023-03-02T11:06:12.872Z,1025.33
2023-03-02T11:07:48.322Z,1025.33
2023-03-02T11:08:51.471Z,1025.29
2023-03-02T11:09:54.805Z,1025.29
2023-03-02T11:11:30.246Z,1025.29
2023-03-02T11:12:34.230Z,1025.32
2023-03-02T11:13:37.256Z,1025.30
2023-03-02T11:15:12.338Z,1025.30
2023-03-02T11:16:15.680Z,1025.28
2023-03-02T11:17:19.244Z,1025.24
2023-03-02T11:18:54.477Z,1025.24
2023-03-02T11:19:57.944Z,1025.27
2023-03-02T11:21:01.239Z,1025.24
2023-03-02T11:22:36.303Z,1025.20
2023-03-02T11:23:39.725Z,1025.19
2023-03-02T11:24:42.849Z,1025.16
2023-03-02T11:26:18.287Z,1025.18
2023-03-02T11:27:21.446Z,1025.18
2023-03-02T11:28:24.553Z,1025.13
2023-03-02T11:29:59.590Z,1025.12
2023-03-02T11:31:02.846Z,1025.07
2023-03-02T11:32:06.552Z,1025.10
2023-03-02T11:33:42.607Z,1025.17
2023-03-02T11:35:03.073Z,1025.10
2023-03-02T11:36:08.913Z,1025.08
2023-03-02T11:37:44.308Z,1025.06
2023-03-02T11:38:47.416Z,1025.06
2023-03-02T11:40:04.635Z,1025.04
2023-03-02T11:41:41.927Z,1025.03
2023-03-02T11:42:45.340Z,1025.03
2023-03-02T11:43:48.748Z,1025.01
2023-03-02T11:45:24.128Z,1024.95
2023-03-02T11:46:33.949Z,1024.98
2023-03-02T11:47:37.378Z,1024.91
2023-03-02T11:49:25.878Z,1024.85
2023-03-02T11:50:28.887Z,1024.84
2023-03-02T11:51:32.282Z,1024.83
2023-03-02T11:53:22.741Z,1024.85
2023-03-02T11:54:26.135Z,1024.83
2023-03-02T11:55:29.289Z,1024.78
2023-03-02T11:57:04.464Z,1024.75
2023-03-02T11:58:07.670Z,1024.81
2023-03-02T11:59:11.016Z,1024.78
2023-03-02T12:00:23.994Z,1024.76
2023-03-02T12:01:27.287Z,1024.74
2023-03-02T12:02:32.274Z,1024.76
2023-03-02T12:04:07.442Z,1024.71
2023-03-02T12:05:10.925Z,1024.65
2023-03-02T12:06:17.419Z,1024.65
2023-03-02T12:07:53.144Z,1024.56
2023-03-02T12:08:56.409Z,1024.64
2023-03-02T12:10:00.051Z,1024.58
2023-03-02T12:11:35.316Z,1024.60
2023-03-02T12:12:38.586Z,1024.59
2023-03-02T12:13:41.572Z,1024.59
2023-03-02T12:15:16.552Z,1024.52
2023-03-02T12:16:19.843Z,1024.45
2023-03-02T12:17:24.031Z,1024.40
2023-03-02T12:18:59.771Z,1024.43
2023-03-02T12:20:02.902Z,1024.39
2023-03-02T12:21:06.002Z,1024.43
2023-03-02T12:22:41.123Z,1024.42
2023-03-02T12:23:45.930Z,1024.41
2023-03-02T12:24:48.946Z,1024.35
2023-03-02T12:26:24.301Z,1024.30
2023-03-02T12:27:28.390Z,1024.27
2023-03-02T12:28:32.015Z,1024.30
2023-03-02T12:30:07.592Z,1024.24
2023-03-02T12:31:11.191Z,1024.18
2023-03-02T12:32:15.240Z,1024.24
2023-03-02T12:33:50.508Z,1024.15
2023-03-02T12:34:53.754Z,1024.14
2023-03-02T12:35:57.154Z,1024.15
2023-03-02T12:37:32.977Z,1024.12
2023-03-02T12:38:36.455Z,1024.09
2023-03-02T12:39:40.121Z,1024.13
2023-03-02T12:41:15.228Z,1024.11
2023-03-02T12:42:18.286Z,1024.09
2023-03-02T12:43:21.720Z,1024.09
2023-03-02T12:44:58.170Z,1024.09
2023-03-02T12:46:01.982Z,1024.09
2023-03-02T12:47:08.158Z,1024.01
2023-03-02T12:48:48.704Z,1024.04
2023-03-02T12:49:54.992Z,1023.98
2023-03-02T12:50:58.936Z,1023.94
2023-03-02T12:52:35.986Z,1023.94
2023-03-02T12:53:39.662Z,1023.94
2023-03-02T12:54:43.049Z,1023.92
2023-03-02T12:56:18.547Z,1023.91
2023-03-02T12:57:22.315Z,1023.95
2023-03-02T12:58:25.675Z,1023.97
2023-03-02T13:00:01.205Z,1023.90
2023-03-02T13:00:23.757Z,1023.90
2023-03-02T13:01:27.769Z,1023.89
2023-03-02T13:02:31.215Z,1023.84
2023-03-02T13:04:07.311Z,1023.83
2023-03-02T13:05:11.027Z,1023.86
2023-03-02T13:06:14.330Z,1023.85
2023-03-02T13:07:50.947Z,1023.77
2023-03-02T13:08:54.810Z,1023.81
2023-03-02T13:10:08.648Z,1023.79
2023-03-02T13:11:44.528Z,1023.74
2023-03-02T13:12:47.786Z,1023.77
2023-03-02T13:13:51.633Z,1023.76
2023-03-02T13:15:27.044Z,1023.69
2023-03-02T13:16:31.067Z,1023.66
2023-03-02T13:17:35.334Z,1023.70
2023-03-02T13:19:10.706Z,1023.70
2023-03-02T13:20:14.022Z,1023.69
2023-03-02T13:21:17.659Z,1023.65
2023-03-02T13:22:53.855Z,1023.66
2023-03-02T13:23:57.065Z,1023.62
2023-03-02T13:25:00.430Z,1023.57
2023-03-02T13:26:36.712Z,1023.58
2023-03-02T13:27:40.253Z,1023.59
2023-03-02T13:28:43.823Z,1023.58
2023-03-02T13:30:19.574Z,1023.58
2023-03-02T13:31:23.845Z,1023.56
2023-03-02T13:32:28.735Z,1023.58
2023-03-02T13:34:04.116Z,1023.55
2023-03-02T13:35:07.362Z,1023.54
2023-03-02T13:36:12.841Z,1023.50
2023-03-02T13:37:48.700Z,1023.46
2023-03-02T13:38:52.334Z,1023.48
2023-03-02T13:39:55.729Z,1023.46
2023-03-02T13:41:31.415Z,1023.47
2023-03-02T13:42:34.879Z,1023.49
2023-03-02T13:43:38.435Z,1023.50
2023-03-02T13:45:14.117Z,1023.46
2023-03-02T13:46:17.658Z,1023.49
2023-03-02T13:47:22.207Z,1023.50
2023-03-02T13:49:11.515Z,1023.51
2023-03-02T13:50:15.263Z,1023.51
2023-03-02T13:51:19.125Z,1023.51
2023-03-02T13:52:54.827Z,1023.55
2023-03-02T13:53:58.121Z,1023.51
2023-03-02T13:55:01.454Z,1023.55
2023-03-02T13:56:37.307Z,1023.51
2023-03-02T13:57:42.338Z,1023.53
2023-03-02T13:58:45.767Z,1023.49
2023-03-02T14:00:23.446Z,1023.45
2023-03-02T14:01:26.796Z,1023.46
2023-03-02T14:02:30.802Z,1023.51
2023-03-02T14:04:08.989Z,1023.53
2023-03-02T14:05:13.539Z,1023.46
2023-03-02T14:06:17.559Z,1023.47
2023-03-02T14:07:53.508Z,1023.53
2023-03-02T14:08:56.789Z,1023.49
2023-03-02T14:10:03.123Z,1023.45
2023-03-02T14:11:38.814Z,1023.45
2023-03-02T14:12:42.258Z,1023.45
2023-03-02T14:13:45.750Z,1023.44
2023-03-02T14:15:21.792Z,1023.48
2023-03-02T14:16:25.521Z,1023.44
2023-03-02T14:17:29.691Z,1023.38
2023-03-02T14:19:05.189Z,1023.39
2023-03-02T14:20:08.606Z,1023.40
2023-03-02T14:21:12.062Z,1023.39
2023-03-02T14:22:47.681Z,1023.30
2023-03-02T14:23:53.367Z,1023.30
2023-03-02T14:24:57.017Z,1023.31
2023-03-02T14:26:32.295Z,1023.30
2023-03-02T14:27:35.824Z,1023.33
2023-03-02T14:28:39.397Z,1023.32
2023-03-02T14:30:30.127Z,1023.29
2023-03-02T14:31:34.385Z,1023.27
2023-03-02T14:32:38.405Z,1023.28
2023-03-02T14:34:14.021Z,1023.33
2023-03-02T14:35:17.514Z,1023.30
2023-03-02T14:36:21.113Z,1023.33
2023-03-02T14:37:56.818Z,1023.33
2023-03-02T14:39:00.280Z,1023.26
2023-03-02T14:40:06.664Z,1023.26
2023-03-02T14:41:59.277Z,1023.29
2023-03-02T14:43:02.660Z,1023.27
2023-03-02T14:44:05.892Z,1023.30
2023-03-02T14:45:42.410Z,1023.28
2023-03-02T14:46:45.910Z,1023.26
2023-03-02T14:47:49.299Z,1023.31
2023-03-02T14:49:24.928Z,1023.25
2023-03-02T14:50:28.372Z,1023.24
2023-03-02T14:51:32.043Z,1023.22
2023-03-02T14:53:08.141Z,1023.21
2023-03-02T14:54:11.662Z,1023.21
2023-03-02T14:55:15.161Z,1023.22